createdAt,value
2023-03-16T00:00:14.172Z,43.10
2023-03-16T00:02:17.119Z,38.80
2023-03-16T00:04:20.040Z,42.22
2023-03-16T00:06:25.779Z,38.47
2023-03-16T00:08:29.180Z,44.25
2023-03-16T00:10:32.069Z,32.67
2023-03-16T00:12:35.159Z,38.38
2023-03-16T00:14:38.080Z,35.45
2023-03-16T00:16:40.985Z,42.22
2023-03-16T00:18:44.002Z,37.55
2023-03-16T00:20:51.481Z,37.45
2023-03-16T00:22:55.849Z,41.55
2023-03-16T00:24:58.806Z,41.78
2023-03-16T00:27:01.771Z,33.05
2023-03-16T00:29:04.990Z,37.70
2023-03-16T00:31:12.272Z,40.25
2023-03-16T00:33:15.915Z,40.10
2023-03-16T00:35:18.840Z,42.92
2023-03-16T00:37:24.039Z,43.05
2023-03-16T00:39:28.554Z,40.30
2023-03-16T00:41:31.713Z,49.28
2023-03-16T00:43:41.334Z,49.85
2023-03-16T00:45:45.218Z,45.67
2023-03-16T00:47:48.357Z,41.35
2023-03-16T00:49:51.290Z,41.30
2023-03-16T00:51:54.678Z,36.50
2023-03-16T00:53:57.692Z,40.75
2023-03-16T00:56:05.241Z,33.85
2023-03-16T00:58:08.322Z,34.33
2023-03-16T01:00:15.430Z,37.30
2023-03-16T01:02:20.250Z,38.90
2023-03-16T01:04:25.233Z,32.83
2023-03-16T01:06:28.981Z,35.22
2023-03-16T01:08:33.401Z,31.83
2023-03-16T01:10:37.514Z,31.67
2023-03-16T01:12:42.120Z,31.45
2023-03-16T01:14:48.261Z,29.80
2023-03-16T01:16:52.258Z,37.05
2023-03-16T01:18:57.353Z,33.63
2023-03-16T01:21:00.734Z,37.30
2023-03-16T01:23:03.865Z,38.10
2023-03-16T01:25:07.634Z,34.25
2023-03-16T01:27:10.633Z,32.50
2023-03-16T01:29:15.055Z,33.58
2023-03-16T01:31:18.374Z,36.03
2023-03-16T01:33:22.193Z,32.30
2023-03-16T01:35:25.152Z,33.13
2023-03-16T01:37:28.142Z,35.97
2023-03-16T01:39:35.112Z,32.50
2023-03-16T01:41:38.725Z,35.97
2023-03-16T01:43:42.656Z,29.73
2023-03-16T01:46:21.970Z,33.28
2023-03-16T01:48:30.075Z,34.95
2023-03-16T01:50:33.114Z,32.50
2023-03-16T01:52:38.080Z,29.42
2023-03-16T01:54:45.434Z,34.15
2023-03-16T01:56:55.915Z,28.75
2023-03-16T01:59:00.067Z,31.15
2023-03-16T02:01:04.034Z,36.22
2023-03-16T02:03:14.093Z,35.30
2023-03-16T02:05:29.593Z,38.20
2023-03-16T02:07:36.419Z,37.70
2023-03-16T02:09:46.773Z,28.63
2023-03-16T02:11:50.513Z,33.90
2023-03-16T02:13:59.234Z,33.03
2023-03-16T02:16:03.328Z,41.00
2023-03-16T02:18:08.234Z,31.98
2023-03-16T02:20:24.705Z,35.25
2023-03-16T02:22:30.054Z,31.65
2023-03-16T02:24:33.240Z,35.45
2023-03-16T02:26:46.193Z,40.05
2023-03-16T02:29:06.834Z,37.20
2023-03-16T02:31:12.648Z,30.50
2023-03-16T02:33:17.816Z,39.85
2023-03-16T02:35:21.733Z,34.33
2023-03-16T02:37:26.964Z,33.80
2023-03-16T02:39:30.035Z,33.42
2023-03-16T02:41:34.234Z,40.35
2023-03-16T02:43:40.575Z,39.15
2023-03-16T02:45:55.796Z,43.70
2023-03-16T02:48:06.153Z,46.60
2023-03-16T02:50:11.279Z,46.15
2023-03-16T02:52:15.084Z,48.42
2023-03-16T02:54:18.593Z,40.50
2023-03-16T02:56:22.862Z,39.50
2023-03-16T02:58:26.514Z,50.63
2023-03-16T03:00:30.308Z,41.63
2023-03-16T03:02:33.213Z,41.60
2023-03-16T03:04:37.785Z,39.72
2023-03-16T03:06:42.682Z,39.65
2023-03-16T03:08:45.994Z,36.97
2023-03-16T03:10:49.725Z,40.10
2023-03-16T03:12:52.644Z,38.88
2023-03-16T03:14:57.638Z,39.50
2023-03-16T03:17:01.042Z,35.53
2023-03-16T03:19:04.072Z,36.50
2023-03-16T03:21:13.218Z,34.88
2023-03-16T03:23:17.397Z,37.67
2023-03-16T03:25:22.370Z,43.42
2023-03-16T03:27:27.076Z,40.90
2023-03-16T03:29:34.896Z,33.50
2023-03-16T03:31:38.117Z,32.40
2023-03-16T03:33:41.204Z,32.30
2023-03-16T03:35:44.165Z,29.85
2023-03-16T03:37:48.781Z,29.35
2023-03-16T03:39:53.876Z,30.65
2023-03-16T03:41:57.720Z,34.22
2023-03-16T03:44:01.218Z,27.15
2023-03-16T03:46:04.962Z,30.48
2023-03-16T03:48:10.076Z,31.50
2023-03-16T03:50:14.186Z,25.38
2023-03-16T03:52:37.010Z,32.88
2023-03-16T03:54:41.405Z,34.83
2023-03-16T03:56:51.499Z,32.65
2023-03-16T03:58:55.791Z,27.10
2023-03-16T04:01:14.957Z,24.73
2023-03-16T04:03:18.426Z,23.45
2023-03-16T04:05:22.353Z,28.30
2023-03-16T04:07:27.013Z,27.80
2023-03-16T04:09:34.432Z,25.02
2023-03-16T04:11:40.246Z,28.23
2023-03-16T04:13:43.273Z,24.33
2023-03-16T04:15:47.339Z,26.23
2023-03-16T04:17:57.635Z,24.77
2023-03-16T04:20:02.432Z,28.70
2023-03-16T04:22:06.832Z,28.42
2023-03-16T04:24:09.992Z,27.02
2023-03-16T04:26:13.241Z,25.02
2023-03-16T04:28:20.762Z,24.42
2023-03-16T04:30:27.747Z,30.35
2023-03-16T04:32:40.541Z,25.50
2023-03-16T04:34:44.313Z,27.80
2023-03-16T04:36:49.593Z,26.38
2023-03-16T04:38:52.657Z,26.33
2023-03-16T04:40:55.795Z,24.55
2023-03-16T04:43:03.133Z,30.10
2023-03-16T04:45:10.993Z,27.30
2023-03-16T04:47:15.326Z,33.88
2023-03-16T04:49:19.604Z,28.30
2023-03-16T04:51:22.474Z,26.27
2023-03-16T04:53:40.514Z,30.08
2023-03-16T04:55:52.314Z,30.92
2023-03-16T04:57:55.375Z,26.77
2023-03-16T04:59:59.233Z,24.92
2023-03-16T05:02:11.357Z,26.90
2023-03-16T05:04:19.208Z,27.38
2023-03-16T05:06:23.753Z,26.30
2023-03-16T05:08:26.851Z,24.65
2023-03-16T05:10:30.716Z,30.40
2023-03-16T05:12:33.834Z,28.92
2023-03-16T05:14:40.607Z,25.63
2023-03-16T05:16:55.833Z,28.75
2023-03-16T05:19:01.404Z,25.48
2023-03-16T05:21:07.524Z,27.00
2023-03-16T05:23:25.858Z,22.30
2023-03-16T05:25:34.595Z,26.15
2023-03-16T05:27:42.074Z,29.92
2023-03-16T05:29:47.115Z,28.48
2023-03-16T05:31:50.282Z,26.27
2023-03-16T05:34:00.141Z,26.38
2023-03-16T05:36:03.532Z,21.73
2023-03-16T05:38:09.050Z,23.08
2023-03-16T05:40:19.376Z,23.67
2023-03-16T05:42:30.037Z,23.52
2023-03-16T05:44:37.321Z,23.92
2023-03-16T05:46:49.698Z,29.55
2023-03-16T05:48:52.690Z,26.27
2023-03-16T05:50:58.719Z,31.45
2023-03-16T05:53:06.160Z,25.77
2023-03-16T05:55:10.247Z,26.25
2023-03-16T05:57:13.452Z,29.80
2023-03-16T05:59:18.759Z,20.17
2023-03-16T06:01:27.756Z,29.73
2023-03-16T06:03:31.759Z,32.47
2023-03-16T06:05:36.357Z,29.73
2023-03-16T06:07:42.121Z,36.22
2023-03-16T06:09:45.677Z,55.80
2023-03-16T06:11:52.146Z,104.78
2023-03-16T06:13:58.237Z,55.17
2023-03-16T06:16:02.062Z,33.65
2023-03-16T06:18:05.252Z,61.92
2023-03-16T06:20:13.322Z,75.68
2023-03-16T06:22:18.852Z,37.33
2023-03-16T06:24:23.328Z,42.42
2023-03-16T06:28:31.155Z,33.40
2023-03-16T06:30:34.358Z,39.35
2023-03-16T06:32:38.411Z,43.15
2023-03-16T06:34:42.079Z,39.70
2023-03-16T06:36:45.641Z,47.95
2023-03-16T06:38:49.398Z,44.13
2023-03-16T06:41:07.806Z,50.53
2023-03-16T06:43:12.404Z,49.60
2023-03-16T06:45:16.969Z,49.33
2023-03-16T06:47:20.482Z,50.13
2023-03-16T06:49:23.630Z,56.30
2023-03-16T06:51:27.047Z,46.90
2023-03-16T06:53:30.509Z,44.85
2023-03-16T06:55:34.198Z,37.20
2023-03-16T06:57:39.003Z,29.60
2023-03-16T06:59:42.043Z,27.05
2023-03-16T07:01:45.542Z,19.25
2023-03-16T07:03:48.512Z,25.67
2023-03-16T07:05:56.973Z,22.35
2023-03-16T07:08:00.072Z,19.75
2023-03-16T07:10:03.206Z,19.25
2023-03-16T07:12:06.636Z,22.73
2023-03-16T07:14:12.328Z,21.60
2023-03-16T07:16:16.573Z,24.50
2023-03-16T07:18:19.896Z,17.05
2023-03-16T07:20:23.812Z,32.30
2023-03-16T07:22:26.797Z,19.88
2023-03-16T07:24:31.115Z,20.13
2023-03-16T07:26:34.238Z,18.60
2023-03-16T07:28:40.931Z,20.23
2023-03-16T07:31:02.445Z,18.00
2023-03-16T07:33:12.290Z,20.00
2023-03-16T07:35:15.996Z,19.90
2023-03-16T07:37:25.417Z,16.13
2023-03-16T07:39:32.285Z,14.63
2023-03-16T07:41:42.718Z,18.65
2023-03-16T07:43:54.913Z,19.77
2023-03-16T07:48:06.203Z,15.30
2023-03-16T07:50:19.716Z,18.42
2023-03-16T07:52:25.757Z,14.57
2023-03-16T07:54:28.824Z,14.98
2023-03-16T07:56:47.532Z,16.95
2023-03-16T07:58:59.972Z,15.95
2023-03-16T08:01:04.843Z,22.02
2023-03-16T08:03:07.855Z,20.95
2023-03-16T08:05:11.693Z,20.73
2023-03-16T08:07:19.239Z,21.23
2023-03-16T08:09:44.404Z,19.40
2023-03-16T08:11:52.088Z,18.40
2023-03-16T08:13:56.768Z,23.67
2023-03-16T08:16:11.007Z,23.13
2023-03-16T08:18:16.048Z,18.70
2023-03-16T08:20:19.916Z,20.08
2023-03-16T08:22:24.006Z,21.80
2023-03-16T08:24:27.888Z,18.90
2023-03-16T08:26:31.127Z,14.52
2023-03-16T08:28:35.788Z,13.80
2023-03-16T08:30:48.801Z,13.88
2023-03-16T08:33:05.765Z,16.27
2023-03-16T08:35:11.183Z,17.10
2023-03-16T08:37:16.669Z,12.38
2023-03-16T08:39:21.999Z,13.73
2023-03-16T08:41:25.969Z,13.50
2023-03-16T08:43:29.450Z,9.05
2023-03-16T08:45:34.128Z,16.23
2023-03-16T08:47:37.119Z,11.23
2023-03-16T08:49:43.306Z,15.40
2023-03-16T08:51:50.357Z,9.73
2023-03-16T08:53:54.475Z,13.82
2023-03-16T08:56:03.679Z,18.90
2023-03-16T08:58:06.608Z,14.65
2023-03-16T09:00:13.797Z,14.32
2023-03-16T09:02:16.888Z,19.40
2023-03-16T09:04:21.819Z,21.55
2023-03-16T09:06:26.292Z,13.88
2023-03-16T09:08:29.754Z,11.85
2023-03-16T09:10:33.517Z,12.43
2023-03-16T09:12:37.482Z,13.60
2023-03-16T09:14:40.576Z,17.35
2023-03-16T09:16:44.701Z,14.70
2023-03-16T09:18:48.333Z,13.95
2023-03-16T09:20:51.713Z,8.30
2023-03-16T09:22:57.319Z,17.00
2023-03-16T09:25:00.437Z,16.83
2023-03-16T09:27:03.694Z,18.60
2023-03-16T09:29:07.313Z,17.02
2023-03-16T09:31:15.901Z,13.73
2023-03-16T09:33:19.292Z,11.68
2023-03-16T09:35:22.476Z,10.75
2023-03-16T09:37:26.987Z,11.10
2023-03-16T09:39:32.354Z,9.23
2023-03-16T09:41:45.434Z,8.50
2023-03-16T09:44:04.014Z,11.38
2023-03-16T09:46:12.413Z,7.97
2023-03-16T09:48:17.537Z,10.23
2023-03-16T09:50:28.192Z,8.15
2023-03-16T09:52:42.077Z,10.68
2023-03-16T09:54:54.529Z,9.88
2023-03-16T09:56:58.718Z,7.55
2023-03-16T09:59:01.837Z,11.50
2023-03-16T10:01:14.807Z,11.35
2023-03-16T10:03:31.017Z,10.50
2023-03-16T10:05:35.845Z,10.55
2023-03-16T10:07:48.594Z,8.43
2023-03-16T10:09:58.198Z,7.97
2023-03-16T10:12:04.195Z,6.68
2023-03-16T10:14:18.117Z,11.02
2023-03-16T10:16:25.843Z,12.95
2023-03-16T10:18:33.517Z,8.43
2023-03-16T10:20:37.474Z,11.10
2023-03-16T10:22:44.352Z,9.10
2023-03-16T10:25:01.866Z,8.63
2023-03-16T10:27:07.956Z,13.88
2023-03-16T10:29:13.400Z,11.82
2023-03-16T10:33:27.276Z,15.02
2023-03-16T10:35:41.990Z,7.10
2023-03-16T10:37:46.912Z,10.32
2023-03-16T10:39:50.473Z,10.20
2023-03-16T10:41:59.712Z,14.10
2023-03-16T10:44:09.383Z,15.98
2023-03-16T10:46:14.950Z,9.77
2023-03-16T10:48:21.478Z,8.65
2023-03-16T10:50:26.118Z,10.02
2023-03-16T10:52:37.883Z,11.98
2023-03-16T10:54:46.884Z,5.90
2023-03-16T10:56:51.078Z,9.93
2023-03-16T10:58:55.480Z,14.23
2023-03-16T11:00:58.908Z,13.45
2023-03-16T11:03:02.921Z,9.13
2023-03-16T11:05:16.731Z,8.73
2023-03-16T11:07:21.859Z,14.68
2023-03-16T11:09:28.522Z,11.77
2023-03-16T11:11:34.283Z,10.95
2023-03-16T11:13:39.359Z,9.30
2023-03-16T11:15:51.441Z,15.63
2023-03-16T11:17:55.122Z,9.50
2023-03-16T11:20:01.522Z,11.00
2023-03-16T11:22:12.283Z,10.80
2023-03-16T11:24:24.044Z,8.02
2023-03-16T11:26:34.281Z,15.15
2023-03-16T11:28:39.740Z,13.13
2023-03-16T11:30:50.060Z,8.73
2023-03-16T11:32:54.468Z,9.45
2023-03-16T11:34:57.594Z,9.77
2023-03-16T11:37:13.522Z,9.27
2023-03-16T11:39:30.965Z,10.77
2023-03-16T11:41:46.224Z,13.02
2023-03-16T11:43:53.466Z,10.85
2023-03-16T11:46:11.850Z,11.02
2023-03-16T11:48:32.964Z,5.80
2023-03-16T11:50:45.380Z,7.07
2023-03-16T11:52:57.822Z,7.82
2023-03-16T11:55:17.118Z,11.00
2023-03-16T11:57:34.348Z,6.88
2023-03-16T12:00:02.808Z,10.48
2023-03-16T12:02:39.042Z,11.52
2023-03-16T12:04:57.083Z,10.15
2023-03-16T12:07:13.036Z,5.97
2023-03-16T12:09:51.996Z,9.43
2023-03-16T12:12:02.239Z,10.25
2023-03-16T12:14:16.113Z,15.98
2023-03-16T12:16:26.025Z,10.15
2023-03-16T12:18:41.902Z,5.75
2023-03-16T12:20:51.123Z,6.60
2023-03-16T12:23:00.085Z,8.20
2023-03-16T12:25:04.559Z,10.05
2023-03-16T12:27:16.360Z,6.10
2023-03-16T12:29:30.977Z,6.80
2023-03-16T12:31:43.245Z,7.47
2023-03-16T12:33:58.678Z,5.97
2023-03-16T12:36:12.634Z,9.07
2023-03-16T12:38:40.879Z,5.35
2023-03-16T12:40:49.064Z,2.60
2023-03-16T12:43:03.404Z,2.03
2023-03-16T12:45:13.529Z,8.38
2023-03-16T12:47:23.303Z,11.38
2023-03-16T12:49:32.494Z,4.95
2023-03-16T12:51:36.878Z,9.00
2023-03-16T12:53:44.195Z,8.50
2023-03-16T12:55:47.465Z,4.80
2023-03-16T12:57:58.519Z,5.30
2023-03-16T13:00:02.470Z,4.20
2023-03-16T13:02:07.116Z,6.15
2023-03-16T13:04:14.870Z,5.27
2023-03-16T13:06:22.156Z,10.10
2023-03-16T13:08:26.162Z,6.13
2023-03-16T13:10:29.333Z,4.55
2023-03-16T13:12:37.473Z,7.22
2023-03-16T13:14:42.913Z,7.13
2023-03-16T13:16:48.189Z,11.50
2023-03-16T13:18:52.519Z,7.97
2023-03-16T13:20:58.554Z,5.65
2023-03-16T13:23:24.242Z,9.07
2023-03-16T13:25:43.324Z,6.80
2023-03-16T13:27:49.636Z,10.52
2023-03-16T13:29:57.796Z,4.68
2023-03-16T13:32:03.764Z,7.95
2023-03-16T13:34:08.794Z,4.00
2023-03-16T13:36:13.501Z,6.97
2023-03-16T13:38:22.920Z,7.93
2023-03-16T13:40:30.534Z,7.97
2023-03-16T13:42:34.359Z,8.05
2023-03-16T13:44:41.487Z,9.98
2023-03-16T13:46:48.234Z,8.00
2023-03-16T13:48:51.595Z,4.20
2023-03-16T13:50:59.136Z,7.80
2023-03-16T13:53:04.781Z,9.25
2023-03-16T13:55:16.488Z,9.27
2023-03-16T13:57:21.721Z,7.97
2023-03-16T13:59:26.245Z,5.60
2023-03-16T14:01:31.380Z,14.05
2023-03-16T14:03:36.555Z,7.47
2023-03-16T14:05:40.995Z,7.15
2023-03-16T14:07:47.733Z,10.10
2023-03-16T14:09:52.814Z,6.70
2023-03-16T14:11:58.161Z,6.85
2023-03-16T14:14:02.315Z,9.38
2023-03-16T14:16:14.013Z,6.85
2023-03-16T14:18:22.207Z,5.65
2023-03-16T14:20:26.361Z,6.85
2023-03-16T14:22:34.768Z,7.28
2023-03-16T14:24:41.126Z,6.72
2023-03-16T14:26:46.354Z,7.97
2023-03-16T14:29:02.162Z,7.80
2023-03-16T14:31:07.677Z,5.55
2023-03-16T14:35:33.773Z,8.88
2023-03-16T14:37:38.810Z,7.85
2023-03-16T14:39:42.656Z,8.77
2023-03-16T14:41:50.047Z,8.55
2023-03-16T14:43:56.559Z,9.27
2023-03-16T14:46:01.722Z,4.95
2023-03-16T14:48:07.649Z,3.60
2023-03-16T14:50:17.109Z,6.22
2023-03-16T14:52:26.692Z,10.73
2023-03-16T14:54:30.248Z,6.53
2023-03-16T14:56:35.642Z,9.13
2023-03-16T14:58:38.639Z,15.52
2023-03-16T15:00:52.888Z,11.55
2023-03-16T15:03:01.305Z,10.90
2023-03-16T15:05:05.139Z,12.45
2023-03-16T15:07:22.669Z,12.32
2023-03-16T15:09:34.769Z,13.73
2023-03-16T15:11:38.848Z,10.02
2023-03-16T15:13:41.752Z,9.38
2023-03-16T15:15:44.842Z,12.20
2023-03-16T15:17:49.238Z,7.43
2023-03-16T15:19:53.819Z,9.65
2023-03-16T15:22:05.338Z,10.63
2023-03-16T15:24:12.441Z,5.35
2023-03-16T15:26:19.528Z,6.85
2023-03-16T15:28:24.541Z,6.40
2023-03-16T15:30:29.291Z,8.23
2023-03-16T15:32:32.515Z,9.55
2023-03-16T15:34:35.758Z,12.65
2023-03-16T15:36:40.483Z,10.15
2023-03-16T15:38:46.445Z,9.00
2023-03-16T15:40:51.531Z,5.88
2023-03-16T15:42:55.201Z,12.02
2023-03-16T15:44:58.101Z,11.63
2023-03-16T15:47:01.770Z,9.07
2023-03-16T15:49:04.794Z,13.55
2023-03-16T15:51:12.800Z,11.63
2023-03-16T15:53:30.885Z,8.00
2023-03-16T15:55:38.846Z,9.95
2023-03-16T15:57:41.956Z,13.05
2023-03-16T15:59:46.955Z,9.77
2023-03-16T16:01:50.925Z,8.43
2023-03-16T16:03:54.690Z,11.15
2023-03-16T16:05:58.032Z,8.27
2023-03-16T16:08:00.881Z,8.38
2023-03-16T16:10:06.350Z,8.05
2023-03-16T16:12:12.678Z,6.63
2023-03-16T16:14:17.615Z,7.97
2023-03-16T16:16:21.300Z,7.82
2023-03-16T16:18:30.803Z,10.52
2023-03-16T16:20:34.202Z,8.13
2023-03-16T16:22:39.791Z,11.25
2023-03-16T16:24:42.675Z,7.68
2023-03-16T16:26:54.945Z,5.70
2023-03-16T16:28:59.654Z,4.80
2023-03-16T16:31:02.832Z,6.32
2023-03-16T16:33:22.058Z,6.18
2023-03-16T16:35:27.964Z,8.93
2023-03-16T16:37:31.272Z,13.30
2023-03-16T16:39:34.252Z,12.48
2023-03-16T16:41:38.269Z,8.05
2023-03-16T16:43:47.271Z,11.57
2023-03-16T16:45:50.621Z,15.95
2023-03-16T16:47:56.112Z,15.30
2023-03-16T16:49:58.943Z,10.57
2023-03-16T16:52:02.593Z,14.55
2023-03-16T16:54:15.560Z,13.35
2023-03-16T16:56:28.761Z,14.38
2023-03-16T16:58:32.646Z,12.82
2023-03-16T17:00:39.952Z,17.38
2023-03-16T17:02:45.081Z,14.15
2023-03-16T17:04:51.261Z,13.07
2023-03-16T17:06:57.834Z,18.55
2023-03-16T17:09:00.839Z,16.27
2023-03-16T17:11:04.272Z,16.23
2023-03-16T17:13:08.136Z,15.32
2023-03-16T17:15:30.230Z,17.25
2023-03-16T17:17:34.873Z,15.73
2023-03-16T17:19:38.293Z,9.93
2023-03-16T17:21:42.353Z,16.60
2023-03-16T17:23:45.194Z,13.48
2023-03-16T17:25:48.203Z,11.00
2023-03-16T17:27:53.917Z,10.25
2023-03-16T17:32:02.847Z,10.25
2023-03-16T17:34:16.948Z,11.68
2023-03-16T17:36:20.795Z,11.50
2023-03-16T17:38:25.570Z,15.68
2023-03-16T17:40:29.127Z,15.37
2023-03-16T17:42:32.196Z,16.55
2023-03-16T17:44:38.428Z,10.23
2023-03-16T17:46:41.773Z,16.50
2023-03-16T17:48:45.881Z,8.40
2023-03-16T17:50:51.841Z,10.20
2023-03-16T17:52:54.734Z,8.95
2023-03-16T17:54:58.019Z,11.30
2023-03-16T17:57:01.521Z,11.07
2023-03-16T17:59:08.000Z,10.60
2023-03-16T18:01:12.721Z,6.55
2023-03-16T18:03:17.998Z,11.68
2023-03-16T18:05:22.579Z,8.25
2023-03-16T18:07:27.277Z,7.43
2023-03-16T18:09:31.438Z,10.47
2023-03-16T18:11:37.837Z,10.43
2023-03-16T18:13:41.846Z,10.60
2023-03-16T18:15:47.175Z,8.98
2023-03-16T18:17:51.209Z,7.60
2023-03-16T18:19:54.959Z,7.38
2023-03-16T18:21:57.756Z,9.35
2023-03-16T18:24:02.957Z,6.03
2023-03-16T18:26:07.365Z,13.48
2023-03-16T18:28:11.757Z,9.52
2023-03-16T18:30:15.476Z,6.93
2023-03-16T18:32:23.212Z,7.30
2023-03-16T18:34:35.160Z,6.50
2023-03-16T18:36:38.515Z,9.10
2023-03-16T18:38:44.893Z,8.20
2023-03-16T18:40:49.689Z,9.73
2023-03-16T18:42:55.490Z,7.10
2023-03-16T18:44:58.461Z,6.78
2023-03-16T18:47:03.887Z,8.98
2023-03-16T18:51:16.563Z,12.18
2023-03-16T18:53:20.197Z,6.70
2023-03-16T18:55:25.398Z,10.13
2023-03-16T18:57:29.886Z,8.13
2023-03-16T18:59:32.997Z,7.25
2023-03-16T19:01:39.705Z,11.70
2023-03-16T19:03:44.793Z,9.00
2023-03-16T19:05:48.347Z,4.72
2023-03-16T19:07:52.813Z,6.90
2023-03-16T19:09:55.918Z,6.57
2023-03-16T19:11:59.326Z,6.32
2023-03-16T19:14:03.797Z,5.63
2023-03-16T19:16:15.812Z,5.63
2023-03-16T19:18:19.071Z,9.50
2023-03-16T19:20:23.844Z,6.72
2023-03-16T19:22:26.592Z,6.00
2023-03-16T19:24:34.475Z,8.73
2023-03-16T19:26:37.634Z,4.18
2023-03-16T19:28:42.673Z,5.30
2023-03-16T19:30:47.832Z,6.35
2023-03-16T19:32:51.592Z,6.65
2023-03-16T19:34:54.717Z,9.82
2023-03-16T19:36:57.565Z,9.30
2023-03-16T19:39:00.831Z,5.90
2023-03-16T19:41:03.756Z,6.57
2023-03-16T19:43:07.436Z,5.57
2023-03-16T19:45:23.276Z,8.43
2023-03-16T19:47:29.805Z,8.27
2023-03-16T19:49:32.876Z,6.80
2023-03-16T19:51:35.957Z,7.60
2023-03-16T19:53:38.842Z,8.38
2023-03-16T19:55:42.163Z,8.93
2023-03-16T19:57:45.958Z,6.28
2023-03-16T19:59:50.883Z,8.68
2023-03-16T20:01:53.813Z,12.65
2023-03-16T20:03:58.566Z,14.65
2023-03-16T20:06:01.639Z,18.83
2023-03-16T20:08:17.598Z,15.35
2023-03-16T20:10:22.704Z,10.90
2023-03-16T20:12:27.927Z,31.23
2023-03-16T20:14:33.575Z,18.73
2023-03-16T20:16:37.439Z,18.17
2023-03-16T20:18:40.476Z,23.05
2023-03-16T20:20:45.646Z,21.33
2023-03-16T20:22:48.688Z,17.52
2023-03-16T20:24:54.721Z,17.60
2023-03-16T20:26:57.957Z,15.52
2023-03-16T20:29:01.836Z,17.02
2023-03-16T20:31:08.398Z,27.40
2023-03-16T20:33:18.036Z,27.10
2023-03-16T20:35:23.798Z,36.22
2023-03-16T20:37:30.355Z,36.45
2023-03-16T20:39:33.240Z,29.02
2023-03-16T20:41:37.074Z,23.58
2023-03-16T20:43:40.508Z,36.65
2023-03-16T20:45:44.234Z,34.13
2023-03-16T20:47:47.317Z,24.23
2023-03-16T20:49:51.076Z,24.77
2023-03-16T20:51:54.407Z,33.05
2023-03-16T20:53:58.834Z,41.85
2023-03-16T20:56:01.929Z,18.75
2023-03-16T20:58:17.503Z,27.45
2023-03-16T21:00:30.993Z,36.72
2023-03-16T21:02:38.802Z,27.60
2023-03-16T21:04:42.939Z,23.38
2023-03-16T21:06:48.661Z,25.65
2023-03-16T21:10:57.389Z,18.85
2023-03-16T21:13:00.281Z,30.92
2023-03-16T21:15:15.240Z,37.67
2023-03-16T21:17:25.907Z,50.30
2023-03-16T21:19:29.666Z,45.22
2023-03-16T21:21:32.517Z,43.58
2023-03-16T21:23:35.913Z,46.13
2023-03-16T21:25:44.235Z,43.97
2023-03-16T21:27:50.036Z,44.63
2023-03-16T21:29:54.116Z,42.38
2023-03-16T21:31:57.157Z,41.40
2023-03-16T21:34:01.175Z,54.30
2023-03-16T21:36:06.626Z,87.57
2023-03-16T21:38:14.361Z,147.90
2023-03-16T21:40:19.645Z,134.10
2023-03-16T21:42:22.545Z,132.57
2023-03-16T21:44:27.301Z,90.50
2023-03-16T21:46:30.387Z,82.72
2023-03-16T21:48:37.093Z,82.97
2023-03-16T21:50:40.796Z,109.47
2023-03-16T21:52:43.998Z,115.13
2023-03-16T21:54:46.874Z,113.60
2023-03-16T21:56:50.680Z,119.18
2023-03-16T21:58:54.625Z,125.20
2023-03-16T22:00:59.183Z,119.18
2023-03-16T22:03:03.679Z,128.68
2023-03-16T22:05:32.274Z,119.00
2023-03-16T22:07:35.120Z,119.05
2023-03-16T22:09:39.510Z,122.28
2023-03-16T22:11:42.392Z,114.10
2023-03-16T22:13:45.602Z,127.40
2023-03-16T22:15:50.529Z,117.90
2023-03-16T22:17:56.513Z,135.15
2023-03-16T22:19:59.671Z,145.68
2023-03-16T22:22:02.839Z,148.10
2023-03-16T22:24:07.851Z,157.07
2023-03-16T22:26:16.801Z,145.45
2023-03-16T22:28:19.752Z,150.73
2023-03-16T22:30:25.152Z,149.93
2023-03-16T22:32:28.308Z,157.32
2023-03-16T22:34:38.924Z,143.07
2023-03-16T22:36:41.994Z,154.10
2023-03-16T22:38:45.966Z,142.10
2023-03-16T22:40:48.994Z,146.43
2023-03-16T22:42:52.195Z,154.27
2023-03-16T22:44:55.403Z,140.45
2023-03-16T22:46:58.314Z,137.90
2023-03-16T22:49:01.225Z,142.38
2023-03-16T22:51:06.116Z,143.50
2023-03-16T22:53:11.959Z,147.02
2023-03-16T22:55:18.675Z,140.45
2023-03-16T22:57:21.932Z,147.32
2023-03-16T22:59:27.386Z,137.48
2023-03-16T23:01:34.853Z,134.20
2023-03-16T23:03:38.097Z,132.43
2023-03-16T23:05:41.947Z,142.18
2023-03-16T23:07:46.997Z,126.70
2023-03-16T23:09:49.839Z,122.05
2023-03-16T23:11:55.041Z,127.45
2023-03-16T23:14:00.097Z,115.75
2023-03-16T23:16:03.062Z,119.03
2023-03-16T23:18:16.797Z,129.57
2023-03-16T23:20:22.957Z,119.93
2023-03-16T23:22:26.159Z,130.77
2023-03-16T23:24:30.646Z,135.95
2023-03-16T23:26:33.605Z,141.30
2023-03-16T23:28:36.689Z,153.15
2023-03-16T23:30:40.709Z,156.00
2023-03-16T23:32:43.933Z,147.25
2023-03-16T23:34:46.793Z,128.00
2023-03-16T23:36:50.184Z,143.13
2023-03-16T23:38:53.560Z,139.88
2023-03-16T23:40:58.144Z,144.23
2023-03-16T23:43:02.419Z,138.50
2023-03-16T23:45:09.936Z,127.05
2023-03-16T23:47:13.157Z,127.07
2023-03-16T23:49:21.874Z,127.03
2023-03-16T23:51:28.539Z,127.05
2023-03-16T23:53:32.072Z,128.93
2023-03-16T23:55:35.057Z,143.90
2023-03-16T23:57:39.517Z,129.02
2023-03-16T23:59:42.597Z,124.40
